sensor_id;sensor_type;location;lat;lon;timestamp;pressure;altitude;pressure_sealevel;temperature;humidity
47815;BME280;33579;50.058;18.130;2023-03-03T00:00:20;99549.50;;;1.40;100.00
47815;BME280;33579;50.058;18.130;2023-03-03T00:01:22;99545.13;;;1.43;100.00
47815;BME280;33579;50.058;18.130;2023-03-03T00:02:24;99546.00;;;1.42;100.00
47815;BME280;33579;50.058;18.130;2023-03-03T00:03:25;99546.09;;;1.40;100.00
47815;BME280;33579;50.058;18.130;2023-03-03T00:04:27;99547.72;;;1.43;100.00
47815;BME280;33579;50.058;18.130;2023-03-03T00:05:31;99549.38;;;1.44;100.00
47815;BME280;33579;50.058;18.130;2023-03-03T00:06:32;99548.53;;;1.43;100.00
47815;BME280;33579;50.058;18.130;2023-03-03T00:07:34;99548.53;;;1.43;100.00
47815;BME280;33579;50.058;18.130;2023-03-03T00:08:36;99554.50;;;1.45;100.00
47815;BME280;33579;50.058;18.130;2023-03-03T00:09:38;99558.91;;;1.43;100.00
47815;BME280;33579;50.058;18.130;2023-03-03T00:10:39;99547.63;;;1.44;100.00
47815;BME280;33579;50.058;18.130;2023-03-03T00:11:41;99550.34;;;1.41;100.00
47815;BME280;33579;50.058;18.130;2023-03-03T00:12:47;99553.00;;;1.39;100.00
47815;BME280;33579;50.058;18.130;2023-03-03T00:13:51;99553.41;;;1.30;100.00
47815;BME280;33579;50.058;18.130;2023-03-03T00:14:54;99554.06;;;1.35;100.00
47815;BME280;33579;50.058;18.130;2023-03-03T00:16:31;99551.50;;;1.34;100.00
47815;BME280;33579;50.058;18.130;2023-03-03T00:17:32;99554.97;;;1.34;100.00
47815;BME280;33579;50.058;18.130;2023-03-03T00:18:35;99560.53;;;1.25;100.00
47815;BME280;33579;50.058;18.130;2023-03-03T00:19:38;99555.34;;;1.25;100.00
47815;BME280;33579;50.058;18.130;2023-03-03T00:20:40;99553.53;;;1.27;100.00
47815;BME280;33579;50.058;18.130;2023-03-03T00:21:44;99554.38;;;1.07;100.00
47815;BME280;33579;50.058;18.130;2023-03-03T00:22:46;99562.16;;;1.07;100.00
47815;BME280;33579;50.058;18.130;2023-03-03T00:23:48;99553.47;;;1.08;100.00
47815;BME280;33579;50.058;18.130;2023-03-03T00:24:49;99568.97;;;1.09;100.00
47815;BME280;33579;50.058;18.130;2023-03-03T00:25:52;99564.56;;;1.11;100.00
47815;BME280;33579;50.058;18.130;2023-03-03T00:26:56;99562.03;;;1.10;100.00
47815;BME280;33579;50.058;18.130;2023-03-03T00:28:21;99562.44;;;1.01;100.00
47815;BME280;33579;50.058;18.130;2023-03-03T00:29:37;99556.91;;;0.88;100.00
47815;BME280;33579;50.058;18.130;2023-03-03T00:30:41;99556.34;;;0.79;100.00
47815;BME280;33579;50.058;18.130;2023-03-03T00:31:42;99551.06;;;0.82;100.00
47815;BME280;33579;50.058;18.130;2023-03-03T00:32:44;99557.25;;;0.78;100.00
47815;BME280;33579;50.058;18.130;2023-03-03T00:33:51;99552.09;;;0.78;100.00
47815;BME280;33579;50.058;18.130;2023-03-03T00:34:55;99555.53;;;0.79;100.00
47815;BME280;33579;50.058;18.130;2023-03-03T00:36:09;99553.97;;;0.75;100.00
47815;BME280;33579;50.058;18.130;2023-03-03T00:38:33;99553.63;;;0.62;100.00
47815;BME280;33579;50.058;18.130;2023-03-03T00:39:37;99555.59;;;0.55;100.00
47815;BME280;33579;50.058;18.130;2023-03-03T00:40:39;99554.28;;;0.45;100.00
47815;BME280;33579;50.058;18.130;2023-03-03T00:41:41;99549.16;;;0.43;100.00
47815;BME280;33579;50.058;18.130;2023-03-03T00:42:48;99549.09;;;0.45;100.00
47815;BME280;33579;50.058;18.130;2023-03-03T00:43:50;99542.84;;;0.50;100.00
47815;BME280;33579;50.058;18.130;2023-03-03T00:45:15;99546.50;;;0.45;100.00
47815;BME280;33579;50.058;18.130;2023-03-03T00:46:22;99537.25;;;0.39;100.00
47815;BME280;33579;50.058;18.130;2023-03-03T00:47:25;99535.88;;;0.30;100.00
47815;BME280;33579;50.058;18.130;2023-03-03T00:49:36;99529.19;;;0.24;100.00
47815;BME280;33579;50.058;18.130;2023-03-03T00:50:38;99531.00;;;0.22;100.00
47815;BME280;33579;50.058;18.130;2023-03-03T00:51:42;99536.41;;;0.16;100.00
47815;BME280;33579;50.058;18.130;2023-03-03T00:53:12;99528.47;;;0.21;100.00
47815;BME280;33579;50.058;18.130;2023-03-03T00:54:12;99521.41;;;0.24;100.00
47815;BME280;33579;50.058;18.130;2023-03-03T00:55:14;99526.66;;;0.23;100.00
47815;BME280;33579;50.058;18.130;2023-03-03T00:56:16;99523.75;;;0.31;100.00
47815;BME280;33579;50.058;18.130;2023-03-03T00:57:17;99519.56;;;0.28;100.00
47815;BME280;33579;50.058;18.130;2023-03-03T00:58:20;99521.56;;;0.21;100.00
47815;BME280;33579;50.058;18.130;2023-03-03T00:59:23;99517.28;;;0.20;100.00
47815;BME280;33579;50.058;18.130;2023-03-03T01:00:24;99517.88;;;0.27;100.00
47815;BME280;33579;50.058;18.130;2023-03-03T01:01:26;99518.41;;;0.35;100.00
47815;BME280;33579;50.058;18.130;2023-03-03T01:02:28;99521.59;;;0.42;100.00
47815;BME280;33579;50.058;18.130;2023-03-03T01:03:30;99513.63;;;0.47;100.00
47815;BME280;33579;50.058;18.130;2023-03-03T01:04:31;99515.28;;;0.49;100.00
47815;BME280;33579;50.058;18.130;2023-03-03T01:05:33;99520.63;;;0.45;100.00
47815;BME280;33579;50.058;18.130;2023-03-03T01:06:35;99516.53;;;0.39;100.00
47815;BME280;33579;50.058;18.130;2023-03-03T01:07:37;99517.44;;;0.38;100.00
47815;BME280;33579;50.058;18.130;2023-03-03T01:08:38;99522.63;;;0.38;100.00
47815;BME280;33579;50.058;18.130;2023-03-03T01:09:40;99514.81;;;0.39;100.00
47815;BME280;33579;50.058;18.130;2023-03-03T01:10:46;99520.50;;;0.48;100.00
47815;BME280;33579;50.058;18.130;2023-03-03T01:11:49;99518.41;;;0.58;100.00
47815;BME280;33579;50.058;18.130;2023-03-03T01:12:51;99515.81;;;0.58;100.00
47815;BME280;33579;50.058;18.130;2023-03-03T01:13:52;99509.66;;;0.60;100.00
47815;BME280;33579;50.058;18.130;2023-03-03T01:14:54;99505.28;;;0.62;100.00
47815;BME280;33579;50.058;18.130;2023-03-03T01:15:57;99505.31;;;0.61;100.00
47815;BME280;33579;50.058;18.130;2023-03-03T01:16:59;99504.00;;;0.50;100.00
47815;BME280;33579;50.058;18.130;2023-03-03T01:18:01;99500.06;;;0.41;100.00
47815;BME280;33579;50.058;18.130;2023-03-03T01:19:03;99499.97;;;0.43;100.00
47815;BME280;33579;50.058;18.130;2023-03-03T01:20:06;99499.91;;;0.45;100.00
47815;BME280;33579;50.058;18.130;2023-03-03T01:21:09;99508.28;;;0.51;100.00
47815;BME280;33579;50.058;18.130;2023-03-03T01:22:12;99502.69;;;0.62;100.00
47815;BME280;33579;50.058;18.130;2023-03-03T01:23:13;99507.59;;;0.68;100.00
47815;BME280;33579;50.058;18.130;2023-03-03T01:24:15;99502.28;;;0.72;100.00
47815;BME280;33579;50.058;18.130;2023-03-03T01:25:17;99499.50;;;0.76;100.00
47815;BME280;33579;50.058;18.130;2023-03-03T01:26:18;99501.91;;;0.81;100.00
47815;BME280;33579;50.058;18.130;2023-03-03T01:27:20;99502.69;;;0.83;100.00
47815;BME280;33579;50.058;18.130;2023-03-03T01:28:22;99500.09;;;0.83;100.00
47815;BME280;33579;50.058;18.130;2023-03-03T01:29:25;99503.59;;;0.82;100.00
47815;BME280;33579;50.058;18.130;2023-03-03T01:30:27;99503.69;;;0.80;100.00
47815;BME280;33579;50.058;18.130;2023-03-03T01:31:29;99504.78;;;0.75;100.00
47815;BME280;33579;50.058;18.130;2023-03-03T01:32:30;99503.38;;;0.66;100.00
47815;BME280;33579;50.058;18.130;2023-03-03T01:33:33;99508.63;;;0.64;100.00
47815;BME280;33579;50.058;18.130;2023-03-03T01:34:35;99513.81;;;0.64;100.00
47815;BME280;33579;50.058;18.130;2023-03-03T01:35:37;99508.63;;;0.64;100.00
47815;BME280;33579;50.058;18.130;2023-03-03T01:36:43;99510.47;;;0.62;100.00
47815;BME280;33579;50.058;18.130;2023-03-03T01:37:45;99505.38;;;0.59;100.00
47815;BME280;33579;50.058;18.130;2023-03-03T01:38:47;99504.56;;;0.59;100.00
47815;BME280;33579;50.058;18.130;2023-03-03T01:39:50;99504.47;;;0.60;100.00
47815;BME280;33579;50.058;18.130;2023-03-03T01:40:56;99500.28;;;0.58;100.00
47815;BME280;33579;50.058;18.130;2023-03-03T01:41:58;99501.09;;;0.58;100.00
47815;BME280;33579;50.058;18.130;2023-03-03T01:43:00;99500.16;;;0.61;100.00
47815;BME280;33579;50.058;18.130;2023-03-03T01:44:02;99496.66;;;0.62;100.00
47815;BME280;33579;50.058;18.130;2023-03-03T01:45:20;99496.66;;;0.62;100.00
47815;BME280;33579;50.058;18.130;2023-03-03T01:47:47;99494.78;;;0.65;100.00
47815;BME280;33579;50.058;18.130;2023-03-03T01:48:57;99496.59;;;0.63;100.00
47815;BME280;33579;50.058;18.130;2023-03-03T01:50:03;99501.78;;;0.63;100.00
47815;BME280;33579;50.058;18.130;2023-03-03T01:51:19;99501.09;;;0.58;100.00
47815;BME280;33579;50.058;18.130;2023-03-03T01:52:27;99505.47;;;0.58;100.00
47815;BME280;33579;50.058;18.130;2023-03-03T01:53:41;99509.06;;;0.53;100.00
47815;BME280;33579;50.058;18.130;2023-03-03T01:54:50;99508.28;;;0.51;100.00
47815;BME280;33579;50.058;18.130;2023-03-03T01:55:53;99501.41;;;0.50;100.00
47815;BME280;33579;50.058;18.130;2023-03-03T01:56:58;99492.81;;;0.50;100.00
47815;BME280;33579;50.058;18.130;2023-03-03T01:58:09;99494.88;;;0.41;100.00
47815;BME280;33579;50.058;18.130;2023-03-03T01:59:21;99491.16;;;0.26;100.00
47815;BME280;33579;50.058;18.130;2023-03-03T02:00:24;99489.91;;;0.15;100.00
47815;BME280;33579;50.058;18.130;2023-03-03T02:01:27;99488.44;;;0.07;100.00
47815;BME280;33579;50.058;18.130;2023-03-03T02:02:32;99490.28;;;0.04;100.00
47815;BME280;33579;50.058;18.130;2023-03-03T02:03:35;99483.13;;;0.10;100.00
47815;BME280;33579;50.058;18.130;2023-03-03T02:04:37;99488.44;;;0.07;100.00
47815;BME280;33579;50.058;18.130;2023-03-03T02:05:40;99487.53;;;0.08;100.00
47815;BME280;33579;50.058;18.130;2023-03-03T02:06:53;99491.97;;;0.05;100.00
47815;BME280;33579;50.058;18.130;2023-03-03T02:07:56;99489.38;;;0.05;100.00
47815;BME280;33579;50.058;18.130;2023-03-03T02:10:17;99488.56;;;0.04;100.00
47815;BME280;33579;50.058;18.130;2023-03-03T02:11:21;99488.63;;;0.03;100.00
47815;BME280;33579;50.058;18.130;2023-03-03T02:12:39;99490.19;;;0.07;100.00
47815;BME280;33579;50.058;18.130;2023-03-03T02:13:41;99487.63;;;0.07;100.00
47815;BME280;33579;50.058;18.130;2023-03-03T02:14:43;99484.22;;;0.05;100.00
47815;BME280;33579;50.058;18.130;2023-03-03T02:15:45;99481.47;;;0.09;100.00
47815;BME280;33579;50.058;18.130;2023-03-03T02:16:47;99485.69;;;0.12;100.00
47815;BME280;33579;50.058;18.130;2023-03-03T02:17:51;99484.78;;;0.13;100.00
47815;BME280;33579;50.058;18.130;2023-03-03T02:18:54;99483.09;;;0.12;100.00
47815;BME280;33579;50.058;18.130;2023-03-03T02:20:05;99488.25;;;0.12;100.00
47815;BME280;33579;50.058;18.130;2023-03-03T02:21:14;99483.09;;;0.12;100.00
47815;BME280;33579;50.058;18.130;2023-03-03T02:22:23;99482.31;;;0.10;100.00
47815;BME280;33579;50.058;18.130;2023-03-03T02:24:42;99486.72;;;0.08;100.00
47815;BME280;33579;50.058;18.130;2023-03-03T02:27:00;99497.06;;;0.08;100.00
47815;BME280;33579;50.058;18.130;2023-03-03T02:28:02;99496.97;;;0.09;100.00
47815;BME280;33579;50.058;18.130;2023-03-03T02:29:04;99496.19;;;0.07;100.00
47815;BME280;33579;50.058;18.130;2023-03-03T02:30:12;99488.44;;;0.07;100.00
47815;BME280;33579;50.058;18.130;2023-03-03T02:31:18;99496.44;;;0.01;100.00
47815;BME280;33579;50.058;18.130;2023-03-03T02:32:20;99498.19;;;0.01;100.00
47815;BME280;33579;50.058;18.130;2023-03-03T02:33:22;99500.81;;;-0.01;100.00
47815;BME280;33579;50.058;18.130;2023-03-03T02:34:24;99496.44;;;0.01;100.00
47815;BME280;33579;50.058;18.130;2023-03-03T02:35:34;99499.88;;;0.02;100.00
47815;BME280;33579;50.058;18.130;2023-03-03T02:36:38;99498.13;;;0.02;100.00
47815;BME280;33579;50.058;18.130;2023-03-03T02:37:40;99493.78;;;0.03;100.00
47815;BME280;33579;50.058;18.130;2023-03-03T02:39:53;99499.03;;;0.01;100.00
47815;BME280;33579;50.058;18.130;2023-03-03T02:40:58;99496.38;;;0.03;100.00
47815;BME280;33579;50.058;18.130;2023-03-03T02:43:10;99491.50;;;-0.05;100.00
47815;BME280;33579;50.058;18.130;2023-03-03T02:44:25;99490.69;;;-0.06;100.00
47815;BME280;33579;50.058;18.130;2023-03-03T02:45:27;99494.22;;;-0.08;100.00
47815;BME280;33579;50.058;18.130;2023-03-03T02:46:33;99499.44;;;-0.10;100.00
47815;BME280;33579;50.058;18.130;2023-03-03T02:47:34;99505.75;;;-0.17;100.00
47815;BME280;33579;50.058;18.130;2023-03-03T02:48:36;99504.28;;;-0.24;100.00
47815;BME280;33579;50.058;18.130;2023-03-03T02:49:38;99505.97;;;-0.23;100.00
47815;BME280;33579;50.058;18.130;2023-03-03T02:50:39;99508.50;;;-0.22;100.00
47815;BME280;33579;50.058;18.130;2023-03-03T02:51:41;99505.03;;;-0.21;100.00
47815;BME280;33579;50.058;18.130;2023-03-03T02:52:43;99507.59;;;-0.21;100.00
47815;BME280;33579;50.058;18.130;2023-03-03T02:53:45;99500.63;;;-0.19;100.00
47815;BME280;33579;50.058;18.130;2023-03-03T02:54:47;99497.91;;;-0.16;100.00
47815;BME280;33579;50.058;18.130;2023-03-03T02:55:49;99499.84;;;-0.21;100.00
47815;BME280;33579;50.058;18.130;2023-03-03T02:56:51;99492.88;;;-0.19;100.00
47815;BME280;33579;50.058;18.130;2023-03-03T02:57:54;99491.91;;;-0.16;100.00
47815;BME280;33579;50.058;18.130;2023-03-03T02:58:56;99494.44;;;-0.15;100.00
47815;BME280;33579;50.058;18.130;2023-03-03T02:59:58;99494.34;;;-0.11;100.00
47815;BME280;33579;50.058;18.130;2023-03-03T03:01:00;99500.50;;;-0.16;100.00
47815;BME280;33579;50.058;18.130;2023-03-03T03:02:02;99497.13;;;-0.18;100.00
47815;BME280;33579;50.058;18.130;2023-03-03T03:03:03;99506.59;;;-0.17;100.00
47815;BME280;33579;50.058;18.130;2023-03-03T03:04:10;99497.91;;;-0.16;100.00
47815;BME280;33579;50.058;18.130;2023-03-03T03:05:15;99499.50;;;-0.11;100.00
47815;BME280;33579;50.058;18.130;2023-03-03T03:06:17;99495.94;;;-0.09;100.00
47815;BME280;33579;50.058;18.130;2023-03-03T03:07:19;99502.63;;;-0.03;100.00
47815;BME280;33579;50.058;18.130;2023-03-03T03:08:21;99491.31;;;-0.01;100.00
47815;BME280;33579;50.058;18.130;2023-03-03T03:09:23;99499.13;;;-0.02;100.00
47815;BME280;33579;50.058;18.130;2023-03-03T03:10:26;99495.66;;;-0.01;100.00
47815;BME280;33579;50.058;18.130;2023-03-03T03:11:28;99492.53;;;-0.09;100.00
47815;BME280;33579;50.058;18.130;2023-03-03T03:12:29;99493.34;;;-0.09;100.00
47815;BME280;33579;50.058;18.130;2023-03-03T03:13:33;99490.72;;;-0.07;100.00
47815;BME280;33579;50.058;18.130;2023-03-03T03:14:35;99495.78;;;-0.04;100.00
47815;BME280;33579;50.058;18.130;2023-03-03T03:15:39;99494.78;;;0.00;100.00
47815;BME280;33579;50.058;18.130;2023-03-03T03:16:41;99490.72;;;-0.07;100.00
47815;BME280;33579;50.058;18.130;2023-03-03T03:17:43;99491.38;;;-0.02;100.00
47815;BME280;33579;50.058;18.130;2023-03-03T03:18:46;99491.50;;;-0.05;100.00
47815;BME280;33579;50.058;18.130;2023-03-03T03:19:48;99491.38;;;-0.02;100.00
47815;BME280;33579;50.058;18.130;2023-03-03T03:20:50;99494.09;;;-0.05;100.00
47815;BME280;33579;50.058;18.130;2023-03-03T03:21:51;99490.16;;;-0.16;100.00
47815;BME280;33579;50.058;18.130;2023-03-03T03:22:53;99492.22;;;-0.24;100.00
47815;BME280;33579;50.058;18.130;2023-03-03T03:23:55;99496.81;;;-0.32;100.00
47815;BME280;33579;50.058;18.130;2023-03-03T03:24:57;99496.03;;;-0.34;100.00
47815;BME280;33579;50.058;18.130;2023-03-03T03:25:59;99497.66;;;-0.32;100.00
47815;BME280;33579;50.058;18.130;2023-03-03T03:27:02;99494.09;;;-0.29;100.00
47815;BME280;33579;50.058;18.130;2023-03-03T03:28:03;99499.44;;;-0.34;100.00
47815;BME280;33579;50.058;18.130;2023-03-03T03:29:05;99490.31;;;-0.43;100.00
47815;BME280;33579;50.058;18.130;2023-03-03T03:30:08;99494.56;;;-0.41;100.00
47815;BME280;33579;50.058;18.130;2023-03-03T03:31:09;99498.66;;;-0.36;100.00
47815;BME280;33579;50.058;18.130;2023-03-03T03:32:11;99495.19;;;-0.35;100.00
47815;BME280;33579;50.058;18.130;2023-03-03T03:33:13;99499.41;;;-0.32;100.00
47815;BME280;33579;50.058;18.130;2023-03-03T03:34:14;99495.13;;;-0.33;100.00
47815;BME280;33579;50.058;18.130;2023-03-03T03:35:17;99498.38;;;-0.28;100.00
47815;BME280;33579;50.058;18.130;2023-03-03T03:36:19;99492.91;;;-0.20;100.00
47815;BME280;33579;50.058;18.130;2023-03-03T03:37:21;99502.44;;;-0.21;100.00
47815;BME280;33579;50.058;18.130;2023-03-03T03:38:23;99498.47;;;-0.30;100.00
47815;BME280;33579;50.058;18.130;2023-03-03T03:39:26;99500.06;;;-0.27;100.00
47815;BME280;33579;50.058;18.130;2023-03-03T03:40:27;99496.03;;;-0.34;100.00
47815;BME280;33579;50.058;18.130;2023-03-03T03:41:29;99501.75;;;-0.50;100.00
47815;BME280;33579;50.058;18.130;2023-03-03T03:42:31;99502.88;;;-0.57;100.00
47815;BME280;33579;50.058;18.130;2023-03-03T03:43:33;99505.06;;;-0.70;100.00
47815;BME280;33579;50.058;18.130;2023-03-03T03:44:36;99500.16;;;-0.78;100.00
47815;BME280;33579;50.058;18.130;2023-03-03T03:45:38;99488.16;;;-0.79;100.00
47815;BME280;33579;50.058;18.130;2023-03-03T03:46:42;99488.25;;;-0.82;100.00
47815;BME280;33579;50.058;18.130;2023-03-03T03:47:44;99488.56;;;-0.91;100.00
47815;BME280;33579;50.058;18.130;2023-03-03T03:48:47;99488.47;;;-0.88;100.00
47815;BME280;33579;50.058;18.130;2023-03-03T03:49:51;99486.47;;;-0.80;100.00
47815;BME280;33579;50.058;18.130;2023-03-03T03:50:52;99489.72;;;-0.75;100.00
47815;BME280;33579;50.058;18.130;2023-03-03T03:51:56;99490.88;;;-0.83;100.00
47815;BME280;33579;50.058;18.130;2023-03-03T03:53:00;99490.06;;;-0.84;100.00
47815;BME280;33579;50.058;18.130;2023-03-03T03:54:03;99500.16;;;-0.78;100.00
47815;BME280;33579;50.058;18.130;2023-03-03T03:55:06;99493.91;;;-0.71;100.00
47815;BME280;33579;50.058;18.130;2023-03-03T03:56:08;99495.28;;;-0.62;100.00
47815;BME280;33579;50.058;18.130;2023-03-03T03:57:10;99502.09;;;-0.59;100.00
47815;BME280;33579;50.058;18.130;2023-03-03T03:58:13;99494.19;;;-0.54;100.00
47815;BME280;33579;50.058;18.130;2023-03-03T03:59:15;99501.03;;;-0.53;100.00
47815;BME280;33579;50.058;18.130;2023-03-03T04:00:17;99493.38;;;-0.57;100.00
47815;BME280;33579;50.058;18.130;2023-03-03T04:01:24;99490.63;;;-0.52;100.00
47815;BME280;33579;50.058;18.130;2023-03-03T04:02:26;99490.63;;;-0.52;100.00
47815;BME280;33579;50.058;18.130;2023-03-03T04:03:28;99493.94;;;-0.48;100.00
47815;BME280;33579;50.058;18.130;2023-03-03T04:04:30;99495.41;;;-0.65;100.00
47815;BME280;33579;50.058;18.130;2023-03-03T04:05:32;99503.09;;;-0.63;100.00
47815;BME280;33579;50.058;18.130;2023-03-03T04:06:34;99500.34;;;-0.59;100.00
47815;BME280;33579;50.058;18.130;2023-03-03T04:07:36;99508.09;;;-0.59;100.00
47815;BME280;33579;50.058;18.130;2023-03-03T04:08:37;99500.50;;;-0.63;100.00
47815;BME280;33579;50.058;18.130;2023-03-03T04:09:39;99506.56;;;-0.64;100.00
47815;BME280;33579;50.058;18.130;2023-03-03T04:10:41;99509.25;;;-0.66;100.00
47815;BME280;33579;50.058;18.130;2023-03-03T04:11:42;99514.69;;;-0.74;100.00
47815;BME280;33579;50.058;18.130;2023-03-03T04:12:45;99516.38;;;-0.73;100.00
47815;BME280;33579;50.058;18.130;2023-03-03T04:13:48;99515.34;;;-0.68;100.00
47815;BME280;33579;50.058;18.130;2023-03-03T04:14:50;99516.00;;;-0.63;100.00
47815;BME280;33579;50.058;18.130;2023-03-03T04:15:51;99513.44;;;-0.63;100.00
47815;BME280;33579;50.058;18.130;2023-03-03T04:16:53;99516.91;;;-0.64;100.00
47815;BME280;33579;50.058;18.130;2023-03-03T04:17:55;99521.25;;;-0.65;100.00
47815;BME280;33579;50.058;18.130;2023-03-03T04:18:57;99522.16;;;-0.66;100.00
47815;BME280;33579;50.058;18.130;2023-03-03T04:19:59;99526.44;;;-0.65;100.00
47815;BME280;33579;50.058;18.130;2023-03-03T04:21:00;99521.56;;;-0.74;100.00
47815;BME280;33579;50.058;18.130;2023-03-03T04:22:02;99519.00;;;-0.74;100.00
47815;BME280;33579;50.058;18.130;2023-03-03T04:23:04;99522.47;;;-0.75;100.00
47815;BME280;33579;50.058;18.130;2023-03-03T04:24:06;99515.34;;;-0.68;100.00
47815;BME280;33579;50.058;18.130;2023-03-03T04:25:11;99515.03;;;-0.59;100.00
47815;BME280;33579;50.058;18.130;2023-03-03T04:26:15;99518.50;;;-0.60;100.00
47815;BME280;33579;50.058;18.130;2023-03-03T04:27:18;99513.22;;;-0.57;100.00
47815;BME280;33579;50.058;18.130;2023-03-03T04:28:19;99518.59;;;-0.63;100.00
47815;BME280;33579;50.058;18.130;2023-03-03T04:29:21;99524.66;;;-0.64;100.00
47815;BME280;33579;50.058;18.130;2023-03-03T04:30:23;99511.66;;;-0.61;100.00
47815;BME280;33579;50.058;18.130;2023-03-03T04:31:28;99518.41;;;-0.57;100.00
47815;BME280;33579;50.058;18.130;2023-03-03T04:32:29;99521.88;;;-0.58;100.00
47815;BME280;33579;50.058;18.130;2023-03-03T04:33:31;99529.09;;;-0.68;100.00
47815;BME280;33579;50.058;18.130;2023-03-03T04:34:34;99518.75;;;-0.92;100.00
47815;BME280;33579;50.058;18.130;2023-03-03T04:35:36;99517.44;;;-1.05;100.00
47815;BME280;33579;50.058;18.130;2023-03-03T04:36:37;99526.28;;;-1.11;100.00
47815;BME280;33579;50.058;18.130;2023-03-03T04:37:39;99529.91;;;-1.17;100.00
47815;BME280;33579;50.058;18.130;2023-03-03T04:38:42;99523.13;;;-1.21;100.00
47815;BME280;33579;50.058;18.130;2023-03-03T04:39:43;99522.72;;;-1.08;100.00
47815;BME280;33579;50.058;18.130;2023-03-03T04:40:46;99532.78;;;-1.01;100.00
47815;BME280;33579;50.058;18.130;2023-03-03T04:41:47;99525.69;;;-0.94;100.00
47815;BME280;33579;50.058;18.130;2023-03-03T04:42:49;99527.28;;;-0.90;100.00
47815;BME280;33579;50.058;18.130;2023-03-03T04:43:51;99535.19;;;-0.94;100.00
47815;BME280;33579;50.058;18.130;2023-03-03T04:44:52;99533.69;;;-1.02;100.00
47815;BME280;33579;50.058;18.130;2023-03-03T04:45:54;99535.00;;;-1.15;100.00
47815;BME280;33579;50.058;18.130;2023-03-03T04:46:56;99531.84;;;-1.23;100.00
47815;BME280;33579;50.058;18.130;2023-03-03T04:47:58;99530.34;;;-1.31;100.00
47815;BME280;33579;50.058;18.130;2023-03-03T04:49:00;99533.75;;;-1.30;100.00
47815;BME280;33579;50.058;18.130;2023-03-03T04:50:02;99532.81;;;-1.28;100.00
47815;BME280;33579;50.058;18.130;2023-03-03T04:51:06;99534.31;;;-1.20;100.00
47815;BME280;33579;50.058;18.130;2023-03-03T04:52:09;99541.84;;;-1.14;100.00
47815;BME280;33579;50.058;18.130;2023-03-03T04:53:12;99539.34;;;-1.16;100.00
47815;BME280;33579;50.058;18.130;2023-03-03T04:54:15;99536.75;;;-1.16;100.00
47815;BME280;33579;50.058;18.130;2023-03-03T04:55:17;99536.19;;;-1.25;100.00
47815;BME280;33579;50.058;18.130;2023-03-03T04:56:20;99534.75;;;-1.34;100.00
47815;BME280;33579;50.058;18.130;2023-03-03T04:57:23;99537.44;;;-1.37;100.00
47815;BME280;33579;50.058;18.130;2023-03-03T04:58:25;99530.38;;;-1.32;100.00
47815;BME280;33579;50.058;18.130;2023-03-03T04:59:28;99537.19;;;-1.30;100.00
47815;BME280;33579;50.058;18.130;2023-03-03T05:00:31;99533.56;;;-1.24;100.00
47815;BME280;33579;50.058;18.130;2023-03-03T05:01:34;99529.91;;;-1.17;100.00
47815;BME280;33579;50.058;18.130;2023-03-03T05:02:36;99532.78;;;-1.26;100.00
47815;BME280;33579;50.058;18.130;2023-03-03T05:03:38;99528.31;;;-1.21;100.00
47815;BME280;33579;50.058;18.130;2023-03-03T05:04:40;99537.66;;;-1.17;100.00
47815;BME280;33579;50.058;18.130;2023-03-03T05:05:41;99534.81;;;-1.09;100.00
47815;BME280;33579;50.058;18.130;2023-03-03T05:06:43;99534.03;;;-1.11;100.00
47815;BME280;33579;50.058;18.130;2023-03-03T05:07:45;99540.22;;;-1.17;100.00
47815;BME280;33579;50.058;18.130;2023-03-03T05:08:46;99542.00;;;-1.19;100.00
47815;BME280;33579;50.058;18.130;2023-03-03T05:09:48;99540.13;;;-1.14;100.00
47815;BME280;33579;50.058;18.130;2023-03-03T05:10:53;99533.00;;;-1.07;100.00
47815;BME280;33579;50.058;18.130;2023-03-03T05:11:55;99533.13;;;-1.10;100.00
47815;BME280;33579;50.058;18.130;2023-03-03T05:12:56;99546.06;;;-1.11;100.00
47815;BME280;33579;50.058;18.130;2023-03-03T05:13:58;99531.00;;;-1.24;100.00
47815;BME280;33579;50.058;18.130;2023-03-03T05:14:59;99548.06;;;-1.20;100.00
47815;BME280;33579;50.058;18.130;2023-03-03T05:16:01;99542.91;;;-1.20;100.00
47815;BME280;33579;50.058;18.130;2023-03-03T05:17:03;99546.06;;;-1.11;100.00
47815;BME280;33579;50.058;18.130;2023-03-03T05:18:04;99550.56;;;-1.17;100.00
47815;BME280;33579;50.058;18.130;2023-03-03T05:19:06;99551.81;;;-1.30;100.00
47815;BME280;33579;50.058;18.130;2023-03-03T05:20:08;99548.31;;;-1.28;100.00
47815;BME280;33579;50.058;18.130;2023-03-03T05:21:11;99549.34;;;-1.33;100.00
47815;BME280;33579;50.058;18.130;2023-03-03T05:22:12;99554.63;;;-1.36;100.00
47815;BME280;33579;50.058;18.130;2023-03-03T05:23:14;99556.16;;;-1.31;100.00
47815;BME280;33579;50.058;18.130;2023-03-03T05:24:16;99558.63;;;-1.28;100.00
47815;BME280;33579;50.058;18.130;2023-03-03T05:25:18;99557.66;;;-1.23;100.00
47815;BME280;33579;50.058;18.130;2023-03-03T05:26:19;99561.56;;;-1.11;100.00
47815;BME280;33579;50.058;18.130;2023-03-03T05:27:21;99557.94;;;-1.06;100.00
47815;BME280;33579;50.058;18.130;2023-03-03T05:28:23;99557.34;;;-1.14;100.00
47815;BME280;33579;50.058;18.130;2023-03-03T05:29:24;99565.31;;;-1.20;100.00
47815;BME280;33579;50.058;18.130;2023-03-03T05:30:26;99556.84;;;-1.25;100.00
47815;BME280;33579;50.058;18.130;2023-03-03T05:31:27;99557.66;;;-1.23;100.00
47815;BME280;33579;50.058;18.130;2023-03-03T05:32:29;99560.13;;;-1.20;100.00
47815;BME280;33579;50.058;18.130;2023-03-03T05:33:31;99558.94;;;-1.10;100.00
47815;BME280;33579;50.058;18.130;2023-03-03T05:34:32;99560.53;;;-1.06;100.00
47815;BME280;33579;50.058;18.130;2023-03-03T05:35:34;99566.44;;;-1.02;100.00
47815;BME280;33579;50.058;18.130;2023-03-03T05:36:36;99566.28;;;-0.97;100.00
47815;BME280;33579;50.058;18.130;2023-03-03T05:37:37;99561.91;;;-0.95;100.00
47815;BME280;33579;50.058;18.130;2023-03-03T05:38:39;99562.84;;;-0.98;100.00